createdAt,value
2017-12-21T00:02:13.842Z,37.13
2017-12-21T00:04:41.350Z,35.70
2017-12-21T00:07:09.766Z,34.17
2017-12-21T00:09:37.256Z,33.78
2017-12-21T00:12:04.774Z,35.10
2017-12-21T00:14:33.030Z,37.47
2017-12-21T00:17:00.518Z,36.28
2017-12-21T00:19:28.839Z,32.28
2017-12-21T00:21:56.326Z,33.33
2017-12-21T00:24:23.818Z,34.15
2017-12-21T00:26:51.354Z,33.13
2017-12-21T00:29:18.851Z,34.55
2017-12-21T00:31:46.340Z,33.50
2017-12-21T00:34:13.841Z,32.90
2017-12-21T00:36:42.090Z,31.92
2017-12-21T00:39:09.944Z,33.33
2017-12-21T00:41:37.438Z,30.15
2017-12-21T00:44:05.928Z,30.62
2017-12-21T00:46:35.582Z,31.02
2017-12-21T00:49:03.086Z,30.85
2017-12-21T00:51:32.125Z,33.75
2017-12-21T00:53:59.973Z,33.97
2017-12-21T00:56:27.481Z,32.40
2017-12-21T00:58:54.966Z,35.92
2017-12-21T01:01:23.242Z,37.85
2017-12-21T01:03:51.527Z,35.38
2017-12-21T01:06:19.022Z,36.75
2017-12-21T01:08:46.510Z,38.97
2017-12-21T01:11:14.010Z,38.47
2017-12-21T01:13:41.499Z,38.33
2017-12-21T01:16:08.982Z,37.92
2017-12-21T01:18:37.628Z,34.40
2017-12-21T01:21:05.126Z,36.92
2017-12-21T01:23:32.614Z,34.05
2017-12-21T01:26:00.139Z,34.63
2017-12-21T01:28:27.720Z,36.05
2017-12-21T01:30:55.205Z,34.30
2017-12-21T01:33:22.710Z,36.25
2017-12-21T01:35:50.210Z,33.75
2017-12-21T01:38:18.480Z,36.92
2017-12-21T01:40:46.754Z,36.13
2017-12-21T01:43:15.010Z,33.95
2017-12-21T01:45:43.348Z,33.25
2017-12-21T01:48:10.867Z,32.65
2017-12-21T01:50:39.120Z,31.35
2017-12-21T01:53:06.611Z,30.00
2017-12-21T01:55:34.898Z,31.42
2017-12-21T01:58:02.387Z,31.15
2017-12-21T02:00:29.868Z,30.80
2017-12-21T02:02:57.367Z,32.50
2017-12-21T02:05:25.618Z,31.90
2017-12-21T02:07:53.449Z,31.73
2017-12-21T02:10:20.966Z,31.50
2017-12-21T02:12:49.238Z,31.52
2017-12-21T02:15:16.718Z,29.40
2017-12-21T02:17:44.226Z,32.22
2017-12-21T02:20:12.510Z,31.40
2017-12-21T02:22:40.006Z,30.67
2017-12-21T02:25:07.518Z,31.27
2017-12-21T02:27:35.009Z,26.85
2017-12-21T02:30:03.266Z,27.73
2017-12-21T02:32:30.785Z,28.30
2017-12-21T02:34:58.282Z,26.23
2017-12-21T02:37:25.762Z,25.20
2017-12-21T02:39:54.589Z,26.23
2017-12-21T02:42:22.158Z,24.35
2017-12-21T02:44:49.651Z,24.98
2017-12-21T02:47:17.962Z,22.92
2017-12-21T02:49:45.447Z,24.65
2017-12-21T02:52:12.934Z,29.23
2017-12-21T02:54:40.487Z,25.83
2017-12-21T02:57:07.983Z,26.45
2017-12-21T02:59:36.238Z,27.55
2017-12-21T03:02:03.742Z,24.40
2017-12-21T03:04:31.234Z,27.05
2017-12-21T03:06:58.730Z,28.20
2017-12-21T03:09:27.006Z,27.52
2017-12-21T03:11:56.044Z,25.08
2017-12-21T03:14:23.544Z,25.45
2017-12-21T03:16:51.051Z,26.10
2017-12-21T03:19:18.551Z,25.45
2017-12-21T03:21:46.042Z,23.60
2017-12-21T03:24:14.328Z,27.50
2017-12-21T03:26:42.636Z,25.30
2017-12-21T03:29:10.122Z,27.13
2017-12-21T03:31:37.618Z,28.25
2017-12-21T03:34:05.868Z,26.37
2017-12-21T03:36:33.354Z,27.08
2017-12-21T03:39:00.871Z,28.70
2017-12-21T03:41:28.363Z,25.25
2017-12-21T03:43:56.618Z,25.83
2017-12-21T03:46:24.122Z,25.65
2017-12-21T03:48:51.626Z,29.42
2017-12-21T03:51:19.124Z,28.17
2017-12-21T03:53:47.398Z,26.73
2017-12-21T03:56:15.666Z,26.77
2017-12-21T03:58:43.930Z,28.75
2017-12-21T04:01:11.570Z,28.25
2017-12-21T04:03:39.062Z,27.92
2017-12-21T04:06:07.317Z,28.55
2017-12-21T04:08:34.838Z,28.30
2017-12-21T04:11:03.042Z,29.63
2017-12-21T04:13:30.538Z,29.58
2017-12-21T04:15:58.806Z,28.42
2017-12-21T04:18:27.058Z,29.30
2017-12-21T04:20:54.550Z,27.20
2017-12-21T04:23:22.826Z,27.58
2017-12-21T04:25:51.078Z,28.25
2017-12-21T04:28:18.566Z,29.63
2017-12-21T04:30:46.839Z,28.58
2017-12-21T04:33:16.550Z,28.08
2017-12-21T04:35:44.809Z,29.73
2017-12-21T04:38:13.075Z,27.08
2017-12-21T04:40:41.475Z,28.52
2017-12-21T04:43:09.762Z,28.40
2017-12-21T04:45:37.277Z,29.70
2017-12-21T04:48:04.778Z,28.52
2017-12-21T04:50:32.270Z,26.58
2017-12-21T04:52:59.788Z,27.33
2017-12-21T04:55:28.062Z,23.75
2017-12-21T04:57:56.314Z,26.98
2017-12-21T05:00:24.382Z,29.05
2017-12-21T05:02:51.884Z,28.50
2017-12-21T05:05:20.131Z,28.48
2017-12-21T05:07:47.647Z,27.35
2017-12-21T05:10:15.136Z,26.40
2017-12-21T05:12:42.839Z,27.95
2017-12-21T05:15:11.143Z,29.90
2017-12-21T05:17:38.638Z,27.98
2017-12-21T05:20:06.134Z,28.80
2017-12-21T05:22:33.662Z,26.70
2017-12-21T05:25:01.151Z,27.08
2017-12-21T05:27:28.641Z,30.20
2017-12-21T05:29:56.162Z,30.15
2017-12-21T05:32:25.258Z,30.12
2017-12-21T05:34:53.509Z,27.35
2017-12-21T05:37:21.034Z,26.95
2017-12-21T05:39:48.530Z,27.23
2017-12-21T05:42:16.026Z,27.85
2017-12-21T05:44:43.534Z,25.75
2017-12-21T05:47:11.027Z,24.35
2017-12-21T05:49:39.294Z,28.90
2017-12-21T05:52:06.807Z,24.95
2017-12-21T05:54:34.293Z,27.50
2017-12-21T05:57:01.800Z,27.92
2017-12-21T05:59:29.298Z,26.67
2017-12-21T06:01:56.785Z,25.88
2017-12-21T06:04:24.269Z,27.35
2017-12-21T06:06:51.782Z,27.77
2017-12-21T06:09:19.263Z,25.75
2017-12-21T06:11:47.517Z,26.02
2017-12-21T06:14:15.038Z,28.90
2017-12-21T06:16:42.534Z,24.35
2017-12-21T06:19:10.055Z,24.30
2017-12-21T06:21:37.574Z,27.40
2017-12-21T06:24:05.859Z,26.00
2017-12-21T06:29:07.938Z,26.40
2017-12-21T06:31:36.927Z,28.33
2017-12-21T06:34:05.182Z,26.10
2017-12-21T06:36:32.686Z,27.15
2017-12-21T06:39:00.174Z,26.33
2017-12-21T06:41:27.678Z,25.67
2017-12-21T06:43:55.177Z,25.95
2017-12-21T06:46:22.663Z,25.20
2017-12-21T06:48:50.154Z,25.40
2017-12-21T06:51:18.520Z,21.65
2017-12-21T06:53:46.815Z,22.58
2017-12-21T06:56:15.070Z,22.92
2017-12-21T06:58:42.594Z,23.10
2017-12-21T07:01:10.090Z,21.58
2017-12-21T07:03:37.834Z,21.23
2017-12-21T07:06:06.130Z,24.10
2017-12-21T07:08:34.985Z,21.75
2017-12-21T07:11:02.479Z,21.23
2017-12-21T07:13:30.004Z,21.83
2017-12-21T07:15:57.490Z,19.87
2017-12-21T07:18:24.982Z,21.73
2017-12-21T07:20:53.250Z,22.75
2017-12-21T07:23:22.854Z,20.42
2017-12-21T07:25:50.330Z,19.92
2017-12-21T07:28:18.778Z,22.48
2017-12-21T07:30:46.307Z,21.83
2017-12-21T07:33:13.810Z,23.50
2017-12-21T07:35:42.110Z,22.60
2017-12-21T07:38:09.602Z,23.38
2017-12-21T07:40:37.090Z,21.77
2017-12-21T07:43:05.074Z,20.27
2017-12-21T07:45:32.559Z,24.08
2017-12-21T07:48:00.286Z,21.83
2017-12-21T07:50:29.750Z,23.05
2017-12-21T07:52:57.610Z,22.98
2017-12-21T07:55:25.103Z,21.20
2017-12-21T07:57:52.623Z,22.83
2017-12-21T08:00:20.160Z,21.58
2017-12-21T08:02:47.614Z,23.98
2017-12-21T08:05:17.258Z,24.65
2017-12-21T08:07:44.756Z,23.50
2017-12-21T08:10:12.327Z,26.55
2017-12-21T08:12:41.858Z,23.70
2017-12-21T08:15:09.920Z,22.15
2017-12-21T08:17:37.902Z,23.00
2017-12-21T08:20:05.418Z,27.45
2017-12-21T08:22:32.913Z,26.92
2017-12-21T08:25:00.411Z,27.87
2017-12-21T08:27:27.914Z,22.73
2017-12-21T08:29:56.110Z,27.42
2017-12-21T08:32:23.622Z,22.48
2017-12-21T08:34:51.148Z,21.30
2017-12-21T08:37:18.645Z,22.55
2017-12-21T08:39:46.160Z,23.95
2017-12-21T08:42:13.686Z,21.27
2017-12-21T08:44:41.961Z,21.45
2017-12-21T08:47:10.215Z,22.10
2017-12-21T08:49:37.794Z,21.17
2017-12-21T08:52:06.074Z,20.45
2017-12-21T08:54:34.350Z,19.92
2017-12-21T08:57:02.626Z,21.48
2017-12-21T08:59:30.882Z,23.73
2017-12-21T09:01:58.368Z,22.15
2017-12-21T09:04:26.650Z,21.45
2017-12-21T09:06:54.910Z,17.77
2017-12-21T09:09:24.007Z,20.58
2017-12-21T09:11:53.166Z,20.95
2017-12-21T09:14:20.666Z,19.20
2017-12-21T09:16:48.943Z,20.88
2017-12-21T09:19:17.225Z,18.17
2017-12-21T09:21:45.494Z,22.05
2017-12-21T09:24:13.766Z,23.45
2017-12-21T09:26:42.106Z,18.27
2017-12-21T09:29:09.615Z,17.77
2017-12-21T09:31:37.877Z,19.48
2017-12-21T09:34:05.456Z,18.62
2017-12-21T09:36:33.718Z,18.52
2017-12-21T09:39:01.203Z,17.67
2017-12-21T09:41:28.722Z,18.25
2017-12-21T09:43:56.210Z,17.65
2017-12-21T09:46:25.170Z,17.35
2017-12-21T09:48:52.690Z,16.23
2017-12-21T09:51:20.189Z,16.08
2017-12-21T09:53:47.671Z,16.60
2017-12-21T09:56:15.950Z,16.33
2017-12-21T09:58:44.214Z,16.73
2017-12-21T10:01:12.502Z,18.62
2017-12-21T10:03:40.784Z,18.55
2017-12-21T10:06:09.038Z,16.15
2017-12-21T10:08:36.578Z,16.92
2017-12-21T10:11:04.129Z,17.45
2017-12-21T10:13:31.614Z,16.20
2017-12-21T10:15:59.097Z,18.75
2017-12-21T10:18:26.614Z,18.25
2017-12-21T10:20:55.038Z,18.48
2017-12-21T10:23:24.714Z,18.30
2017-12-21T10:25:52.211Z,18.87
2017-12-21T10:28:19.711Z,18.45
2017-12-21T10:30:47.198Z,15.35
2017-12-21T10:33:16.686Z,17.95
2017-12-21T10:35:44.473Z,17.25
2017-12-21T10:38:12.770Z,18.20
2017-12-21T10:40:41.559Z,16.17
2017-12-21T10:43:11.099Z,16.95
2017-12-21T10:45:41.187Z,19.20
2017-12-21T10:48:09.450Z,18.50
2017-12-21T10:50:39.322Z,18.65
2017-12-21T10:53:06.810Z,19.37
2017-12-21T10:55:34.295Z,19.20
2017-12-21T10:58:02.719Z,18.75
2017-12-21T11:00:31.698Z,20.30
2017-12-21T11:02:59.204Z,19.62
2017-12-21T11:05:27.531Z,19.90
2017-12-21T11:07:55.888Z,20.17
2017-12-21T11:10:23.384Z,18.90
2017-12-21T11:12:50.878Z,20.15
2017-12-21T11:15:19.106Z,18.27
2017-12-21T11:17:46.595Z,18.75
2017-12-21T11:20:14.448Z,19.42
2017-12-21T11:22:42.689Z,18.17
2017-12-21T11:25:10.178Z,20.00
2017-12-21T11:27:37.666Z,18.83
2017-12-21T11:30:05.179Z,21.35
2017-12-21T11:32:32.662Z,20.15
2017-12-21T11:35:00.150Z,21.37
2017-12-21T11:37:28.434Z,20.70
2017-12-21T11:39:56.706Z,20.20
2017-12-21T11:42:24.986Z,21.35
2017-12-21T11:44:53.734Z,20.58
2017-12-21T11:47:22.671Z,23.27
2017-12-21T11:49:50.936Z,20.83
2017-12-21T11:52:19.218Z,21.90
2017-12-21T11:54:47.489Z,21.60
2017-12-21T11:57:15.757Z,23.05
2017-12-21T11:59:43.322Z,23.70
2017-12-21T12:02:10.806Z,22.65
2017-12-21T12:04:38.306Z,23.25
2017-12-21T12:07:05.811Z,21.27
2017-12-21T12:09:34.090Z,24.12
2017-12-21T12:12:02.346Z,23.92
2017-12-21T12:14:29.874Z,21.62
2017-12-21T12:16:57.367Z,23.50
2017-12-21T12:19:24.865Z,22.10
2017-12-21T12:21:52.398Z,21.75
2017-12-21T12:24:20.671Z,23.70
2017-12-21T12:26:48.926Z,24.23
2017-12-21T12:29:16.456Z,25.50
2017-12-21T12:31:43.951Z,25.70
2017-12-21T12:34:11.448Z,23.80
2017-12-21T12:36:38.966Z,24.05
2017-12-21T12:39:06.459Z,24.02
2017-12-21T12:41:33.962Z,25.48
2017-12-21T12:44:01.471Z,24.55
2017-12-21T12:46:29.738Z,22.02
2017-12-21T12:48:58.004Z,24.45
2017-12-21T12:51:25.510Z,24.60
2017-12-21T12:53:53.002Z,26.90
2017-12-21T12:56:20.495Z,25.70
2017-12-21T12:58:48.792Z,26.80
2017-12-21T13:01:16.292Z,28.40
2017-12-21T13:03:43.790Z,25.02
2017-12-21T13:06:12.088Z,26.42
2017-12-21T13:08:39.680Z,26.00
2017-12-21T13:11:07.174Z,28.12
2017-12-21T13:13:35.461Z,30.48
2017-12-21T13:16:03.718Z,29.48
2017-12-21T13:18:31.227Z,29.05
2017-12-21T13:20:58.826Z,31.87
2017-12-21T13:23:26.315Z,30.00
2017-12-21T13:25:54.574Z,31.10
2017-12-21T13:28:22.102Z,33.53
2017-12-21T13:30:49.589Z,31.95
2017-12-21T13:33:17.080Z,33.05
2017-12-21T13:35:44.606Z,31.92
2017-12-21T13:38:12.090Z,35.25
2017-12-21T13:40:39.602Z,33.00
2017-12-21T13:43:07.125Z,32.47
2017-12-21T13:45:34.664Z,36.15
2017-12-21T13:48:02.922Z,34.65
2017-12-21T13:50:30.468Z,33.55
2017-12-21T13:52:57.954Z,36.80
2017-12-21T13:55:26.223Z,34.28
2017-12-21T13:57:55.706Z,35.67
2017-12-21T14:00:23.219Z,31.73
2017-12-21T14:02:50.718Z,35.17
2017-12-21T14:05:18.250Z,36.67
2017-12-21T14:07:45.751Z,37.40
2017-12-21T14:10:13.254Z,41.40
2017-12-21T14:12:40.782Z,37.72
2017-12-21T14:15:09.043Z,37.88
2017-12-21T14:17:36.534Z,39.03
2017-12-21T14:20:04.062Z,37.30
2017-12-21T14:22:31.546Z,35.75
2017-12-21T14:24:59.051Z,36.92
2017-12-21T14:27:26.560Z,39.55
2017-12-21T14:29:54.819Z,40.70
2017-12-21T14:32:22.319Z,40.67
2017-12-21T14:34:49.848Z,43.33
2017-12-21T14:37:17.351Z,44.73
2017-12-21T14:39:45.382Z,42.62
2017-12-21T14:42:13.693Z,40.08
2017-12-21T14:44:41.188Z,41.13
2017-12-21T14:47:08.678Z,43.77
2017-12-21T14:49:36.954Z,44.58
2017-12-21T14:52:05.222Z,41.90
2017-12-21T14:54:33.510Z,58.85
2017-12-21T14:57:01.795Z,50.78
2017-12-21T14:59:29.282Z,45.38
2017-12-21T15:01:56.776Z,45.17
2017-12-21T15:04:24.302Z,40.97
2017-12-21T15:06:51.799Z,42.55
2017-12-21T15:09:19.854Z,45.90
2017-12-21T15:11:47.374Z,52.00
2017-12-21T15:14:14.870Z,44.05
2017-12-21T15:16:42.372Z,46.60
2017-12-21T15:19:10.657Z,42.10
2017-12-21T15:21:38.903Z,41.57
2017-12-21T15:24:06.393Z,41.07
2017-12-21T15:26:33.931Z,42.23
2017-12-21T15:29:02.194Z,44.45
2017-12-21T15:31:29.692Z,40.90
2017-12-21T15:33:57.203Z,40.28
2017-12-21T15:36:24.825Z,42.08
2017-12-21T15:38:52.314Z,40.50
2017-12-21T15:41:19.840Z,38.17
2017-12-21T15:43:47.422Z,39.70
2017-12-21T15:46:15.639Z,41.40
2017-12-21T15:48:43.914Z,42.20
2017-12-21T15:51:11.758Z,42.70
2017-12-21T15:53:39.249Z,38.63
2017-12-21T15:56:07.526Z,34.97
2017-12-21T15:58:35.803Z,35.07
2017-12-21T16:01:04.078Z,37.53
2017-12-21T16:03:31.602Z,35.37
2017-12-21T16:05:59.094Z,36.30
2017-12-21T16:08:27.360Z,32.03
2017-12-21T16:10:55.635Z,38.35
2017-12-21T16:13:23.906Z,37.58
2017-12-21T16:15:51.405Z,38.33
2017-12-21T16:18:18.934Z,36.73
2017-12-21T16:20:46.439Z,40.03
2017-12-21T16:23:13.938Z,38.35
2017-12-21T16:25:41.452Z,36.85
2017-12-21T16:28:08.942Z,36.90
2017-12-21T16:30:36.434Z,35.05
2017-12-21T16:33:04.715Z,35.00
2017-12-21T16:35:32.982Z,33.47
2017-12-21T16:38:00.469Z,36.10
2017-12-21T16:40:27.991Z,36.35
2017-12-21T16:42:55.487Z,29.75
2017-12-21T16:45:22.988Z,33.05
2017-12-21T16:47:50.491Z,33.03
2017-12-21T16:50:17.990Z,31.45
2017-12-21T16:52:45.502Z,31.60
2017-12-21T16:55:13.116Z,31.83
2017-12-21T16:57:40.663Z,31.10
2017-12-21T17:00:08.158Z,30.87
2017-12-21T17:02:35.670Z,27.20
2017-12-21T17:05:03.163Z,28.60
2017-12-21T17:07:30.675Z,29.20
2017-12-21T17:09:58.182Z,28.50
2017-12-21T17:12:25.696Z,30.17
2017-12-21T17:14:53.194Z,30.60
2017-12-21T17:17:22.789Z,30.98
2017-12-21T17:19:50.278Z,29.63
2017-12-21T17:22:17.783Z,32.70
2017-12-21T17:24:45.295Z,30.50
2017-12-21T17:27:12.786Z,27.50
2017-12-21T17:29:40.283Z,30.30
2017-12-21T17:32:07.811Z,31.08
2017-12-21T17:34:35.298Z,30.55
2017-12-21T17:37:02.802Z,31.73
2017-12-21T17:39:31.073Z,33.03
2017-12-21T17:41:58.707Z,31.90
2017-12-21T17:44:26.221Z,34.95
2017-12-21T17:46:54.524Z,33.40
2017-12-21T17:49:22.046Z,32.35
2017-12-21T17:51:50.310Z,31.60
2017-12-21T17:54:18.600Z,33.92
2017-12-21T17:56:46.898Z,32.47
2017-12-21T17:59:14.367Z,31.90
2017-12-21T18:01:41.875Z,30.27
2017-12-21T18:04:10.375Z,32.78
2017-12-21T18:06:38.650Z,31.37
2017-12-21T18:09:06.958Z,29.30
2017-12-21T18:11:35.139Z,31.20
2017-12-21T18:14:02.642Z,32.10
2017-12-21T18:16:30.162Z,35.63
2017-12-21T18:18:58.214Z,33.33
2017-12-21T18:21:27.378Z,30.08
2017-12-21T18:23:55.654Z,34.03
2017-12-21T18:26:24.268Z,31.95
2017-12-21T18:28:52.347Z,31.93
2017-12-21T18:31:21.358Z,31.30
2017-12-21T18:33:49.759Z,32.28
2017-12-21T18:36:18.211Z,30.12
2017-12-21T18:38:45.719Z,28.30
2017-12-21T18:41:13.992Z,29.65
2017-12-21T18:43:41.719Z,29.73
2017-12-21T18:46:09.281Z,31.40
2017-12-21T18:48:37.475Z,27.70
2017-12-21T18:51:05.751Z,24.90
2017-12-21T18:53:33.294Z,26.43
2017-12-21T18:56:01.598Z,27.50
2017-12-21T18:58:29.095Z,30.13
2017-12-21T19:00:56.690Z,25.40
2017-12-21T19:03:24.197Z,27.77
2017-12-21T19:05:52.493Z,25.12
2017-12-21T19:08:20.860Z,26.83
2017-12-21T19:10:49.126Z,25.52
2017-12-21T19:13:17.383Z,28.65
2017-12-21T19:15:44.902Z,27.90
2017-12-21T19:18:12.407Z,27.85
2017-12-21T19:20:39.895Z,23.50
2017-12-21T19:23:08.177Z,24.60
2017-12-21T19:25:35.670Z,26.17
2017-12-21T19:28:03.181Z,25.00
2017-12-21T19:30:31.480Z,27.27
2017-12-21T19:32:58.982Z,27.08
2017-12-21T19:35:26.470Z,28.00
2017-12-21T19:37:55.650Z,27.95
2017-12-21T19:40:23.146Z,26.48
2017-12-21T19:42:50.643Z,26.05
2017-12-21T19:45:18.189Z,28.60
2017-12-21T19:47:45.691Z,26.25
2017-12-21T19:50:14.003Z,26.73
2017-12-21T19:52:43.078Z,26.20
2017-12-21T19:55:11.353Z,27.60
2017-12-21T19:57:38.843Z,26.10
2017-12-21T20:00:06.399Z,28.52
2017-12-21T20:02:34.768Z,26.17
2017-12-21T20:05:02.254Z,27.60
2017-12-21T20:07:30.219Z,28.27
2017-12-21T20:09:57.739Z,25.50
2017-12-21T20:12:26.010Z,25.58
2017-12-21T20:14:54.328Z,27.52
2017-12-21T20:17:21.826Z,22.90
2017-12-21T20:19:49.337Z,25.70
2017-12-21T20:22:16.939Z,22.80
2017-12-21T20:24:44.526Z,21.17
2017-12-21T20:27:12.788Z,21.83
2017-12-21T20:29:40.314Z,19.17
2017-12-21T20:32:08.610Z,21.45
2017-12-21T20:34:36.098Z,20.73
2017-12-21T20:37:05.254Z,19.65
2017-12-21T20:39:33.187Z,21.45
2017-12-21T20:42:01.463Z,20.45
2017-12-21T20:44:28.970Z,22.70
2017-12-21T20:46:56.483Z,24.08
2017-12-21T20:49:23.998Z,22.95
2017-12-21T20:51:51.520Z,23.67
2017-12-21T20:54:19.018Z,24.20
2017-12-21T20:56:46.750Z,24.63
2017-12-21T20:59:14.262Z,24.10
2017-12-21T21:01:42.534Z,26.23
2017-12-21T21:04:11.406Z,25.03
2017-12-21T21:06:39.630Z,27.60
2017-12-21T21:09:07.136Z,33.03
2017-12-21T21:11:34.637Z,26.40
2017-12-21T21:14:02.236Z,28.80
2017-12-21T21:16:31.410Z,24.17
2017-12-21T21:18:58.907Z,28.17
2017-12-21T21:21:26.446Z,27.83
2017-12-21T21:23:54.538Z,25.45
2017-12-21T21:26:22.281Z,23.43
2017-12-21T21:28:49.790Z,26.40
2017-12-21T21:31:18.870Z,24.40
2017-12-21T21:33:46.368Z,27.75
2017-12-21T21:36:13.890Z,25.70
2017-12-21T21:38:41.369Z,24.57
2017-12-21T21:41:09.630Z,23.40
2017-12-21T21:43:37.158Z,23.17
2017-12-21T21:46:05.466Z,23.60
2017-12-21T21:48:32.966Z,22.87
2017-12-21T21:51:01.399Z,22.07
2017-12-21T21:53:29.594Z,22.87
2017-12-21T21:55:57.417Z,21.70
2017-12-21T21:58:24.919Z,22.40
2017-12-21T22:00:52.403Z,23.20
2017-12-21T22:03:21.111Z,24.60
2017-12-21T22:05:48.622Z,24.50
2017-12-21T22:08:18.354Z,22.30
2017-12-21T22:10:45.846Z,25.93
2017-12-21T22:13:13.882Z,25.23
2017-12-21T22:15:41.399Z,26.15
2017-12-21T22:18:10.262Z,27.60
2017-12-21T22:20:37.791Z,27.87
2017-12-21T22:23:06.173Z,27.53
2017-12-21T22:25:33.662Z,29.87
2017-12-21T22:28:01.198Z,28.90
2017-12-21T22:30:28.713Z,29.95
2017-12-21T22:32:56.206Z,29.35
2017-12-21T22:35:23.716Z,29.70
2017-12-21T22:37:52.371Z,34.40
2017-12-21T22:40:19.862Z,37.75
2017-12-21T22:42:47.385Z,34.45
2017-12-21T22:45:14.886Z,35.45
2017-12-21T22:47:42.382Z,40.07
2017-12-21T22:50:09.902Z,42.10
2017-12-21T22:52:37.410Z,39.70
2017-12-21T22:55:04.918Z,36.28
2017-12-21T22:57:32.455Z,34.70
2017-12-21T22:59:59.962Z,31.77
2017-12-21T23:02:27.456Z,32.20
2017-12-21T23:04:56.590Z,32.55
2017-12-21T23:07:24.090Z,33.27
2017-12-21T23:09:51.587Z,33.38
2017-12-21T23:12:19.107Z,36.00
2017-12-21T23:14:46.604Z,26.27
2017-12-21T23:17:14.094Z,24.13
2017-12-21T23:19:41.613Z,26.60
2017-12-21T23:22:09.123Z,26.50
2017-12-21T23:24:37.390Z,28.67
2017-12-21T23:27:05.759Z,28.90
2017-12-21T23:29:33.261Z,25.53
2017-12-21T23:32:00.754Z,28.20
2017-12-21T23:34:29.197Z,27.60
2017-12-21T23:36:56.722Z,28.67
2017-12-21T23:39:24.211Z,28.37
2017-12-21T23:41:51.742Z,31.62
2017-12-21T23:44:19.238Z,28.93
2017-12-21T23:46:46.750Z,28.43
2017-12-21T23:49:16.013Z,25.60
2017-12-21T23:51:45.300Z,28.10
2017-12-21T23:54:12.794Z,26.07
2017-12-21T23:56:41.229Z,23.60
2017-12-21T23:59:08.718Z,22.80
